sensor_id;sensor_type;location;lat;lon;timestamp;P1;durP1;ratioP1;P2;durP2;ratioP2
25391;SDS011;13329;48.402;11.718;2023-04-10T00:01:04;12.95;;;4.45;;
25391;SDS011;13329;48.402;11.718;2023-04-10T00:03:30;9.68;;;3.60;;
25391;SDS011;13329;48.402;11.718;2023-04-10T00:05:55;8.93;;;3.80;;
25391;SDS011;13329;48.402;11.718;2023-04-10T00:08:21;10.02;;;4.47;;
25391;SDS011;13329;48.402;11.718;2023-04-10T00:10:47;9.35;;;4.40;;
25391;SDS011;13329;48.402;11.718;2023-04-10T00:13:13;10.60;;;4.75;;
25391;SDS011;13329;48.402;11.718;2023-04-10T00:15:38;10.85;;;4.53;;
25391;SDS011;13329;48.402;11.718;2023-04-10T00:18:03;8.77;;;3.80;;
25391;SDS011;13329;48.402;11.718;2023-04-10T00:20:28;7.85;;;3.90;;
25391;SDS011;13329;48.402;11.718;2023-04-10T00:22:54;7.10;;;3.65;;
25391;SDS011;13329;48.402;11.718;2023-04-10T00:25:19;12.65;;;4.35;;
25391;SDS011;13329;48.402;11.718;2023-04-10T00:27:46;9.48;;;4.88;;
25391;SDS011;13329;48.402;11.718;2023-04-10T00:30:12;10.33;;;4.40;;
25391;SDS011;13329;48.402;11.718;2023-04-10T00:32:37;7.90;;;3.67;;
25391;SDS011;13329;48.402;11.718;2023-04-10T00:35:02;9.75;;;4.30;;
25391;SDS011;13329;48.402;11.718;2023-04-10T00:37:28;8.88;;;4.07;;
25391;SDS011;13329;48.402;11.718;2023-04-10T00:39:53;9.07;;;4.73;;
25391;SDS011;13329;48.402;11.718;2023-04-10T00:42:18;9.87;;;4.83;;
25391;SDS011;13329;48.402;11.718;2023-04-10T00:44:43;10.53;;;4.67;;
25391;SDS011;13329;48.402;11.718;2023-04-10T00:47:08;8.38;;;3.72;;
25391;SDS011;13329;48.402;11.718;2023-04-10T00:49:34;11.48;;;4.38;;
25391;SDS011;13329;48.402;11.718;2023-04-10T00:51:59;8.07;;;4.25;;
25391;SDS011;13329;48.402;11.718;2023-04-10T00:54:25;10.48;;;4.50;;
25391;SDS011;13329;48.402;11.718;2023-04-10T00:56:50;11.48;;;4.63;;
25391;SDS011;13329;48.402;11.718;2023-04-10T00:59:15;13.30;;;5.07;;
25391;SDS011;13329;48.402;11.718;2023-04-10T01:01:41;14.63;;;6.03;;
25391;SDS011;13329;48.402;11.718;2023-04-10T01:04:06;15.90;;;6.47;;
25391;SDS011;13329;48.402;11.718;2023-04-10T01:06:43;14.57;;;5.68;;
25391;SDS011;13329;48.402;11.718;2023-04-10T01:11:59;11.13;;;3.92;;
25391;SDS011;13329;48.402;11.718;2023-04-10T01:22:34;12.52;;;5.60;;
25391;SDS011;13329;48.402;11.718;2023-04-10T01:25:01;14.57;;;5.07;;
25391;SDS011;13329;48.402;11.718;2023-04-10T01:28:15;9.55;;;4.80;;
25391;SDS011;13329;48.402;11.718;2023-04-10T01:30:15;8.93;;;4.00;;
25391;SDS011;13329;48.402;11.718;2023-04-10T01:32:42;9.70;;;4.10;;
25391;SDS011;13329;48.402;11.718;2023-04-10T01:35:07;10.80;;;4.50;;
25391;SDS011;13329;48.402;11.718;2023-04-10T01:37:33;11.35;;;4.22;;
25391;SDS011;13329;48.402;11.718;2023-04-10T01:40:03;13.57;;;4.63;;
25391;SDS011;13329;48.402;11.718;2023-04-10T01:42:31;11.65;;;4.63;;
25391;SDS011;13329;48.402;11.718;2023-04-10T01:44:56;12.50;;;5.82;;
25391;SDS011;13329;48.402;11.718;2023-04-10T01:47:22;8.88;;;4.20;;
25391;SDS011;13329;48.402;11.718;2023-04-10T01:49:48;15.23;;;4.93;;
25391;SDS011;13329;48.402;11.718;2023-04-10T01:52:14;13.68;;;5.07;;
25391;SDS011;13329;48.402;11.718;2023-04-10T01:54:40;11.68;;;4.82;;
25391;SDS011;13329;48.402;11.718;2023-04-10T01:57:05;12.63;;;4.80;;
25391;SDS011;13329;48.402;11.718;2023-04-10T01:59:30;10.50;;;4.75;;
25391;SDS011;13329;48.402;11.718;2023-04-10T02:01:56;11.43;;;4.93;;
25391;SDS011;13329;48.402;11.718;2023-04-10T02:04:21;6.43;;;3.80;;
25391;SDS011;13329;48.402;11.718;2023-04-10T02:07:01;13.27;;;4.93;;
25391;SDS011;13329;48.402;11.718;2023-04-10T02:09:30;9.10;;;4.05;;
25391;SDS011;13329;48.402;11.718;2023-04-10T02:12:07;15.03;;;5.13;;
25391;SDS011;13329;48.402;11.718;2023-04-10T02:14:35;9.88;;;4.15;;
25391;SDS011;13329;48.402;11.718;2023-04-10T02:17:00;9.98;;;4.38;;
25391;SDS011;13329;48.402;11.718;2023-04-10T02:19:26;9.45;;;4.45;;
25391;SDS011;13329;48.402;11.718;2023-04-10T02:21:52;11.88;;;5.00;;
25391;SDS011;13329;48.402;11.718;2023-04-10T02:24:18;14.15;;;5.35;;
25391;SDS011;13329;48.402;11.718;2023-04-10T02:26:45;10.60;;;4.72;;
25391;SDS011;13329;48.402;11.718;2023-04-10T02:29:10;14.48;;;6.13;;
25391;SDS011;13329;48.402;11.718;2023-04-10T02:31:36;10.18;;;4.65;;
25391;SDS011;13329;48.402;11.718;2023-04-10T02:34:01;11.93;;;4.93;;
25391;SDS011;13329;48.402;11.718;2023-04-10T02:36:26;9.87;;;4.70;;
25391;SDS011;13329;48.402;11.718;2023-04-10T02:38:52;13.00;;;5.93;;
25391;SDS011;13329;48.402;11.718;2023-04-10T02:41:17;10.83;;;5.00;;
25391;SDS011;13329;48.402;11.718;2023-04-10T02:43:42;9.30;;;4.50;;
25391;SDS011;13329;48.402;11.718;2023-04-10T02:46:07;14.20;;;4.83;;
25391;SDS011;13329;48.402;11.718;2023-04-10T02:48:32;13.63;;;5.20;;
25391;SDS011;13329;48.402;11.718;2023-04-10T02:50:58;14.33;;;5.13;;
25391;SDS011;13329;48.402;11.718;2023-04-10T02:53:23;12.13;;;4.93;;
25391;SDS011;13329;48.402;11.718;2023-04-10T02:55:49;13.60;;;4.70;;
25391;SDS011;13329;48.402;11.718;2023-04-10T02:58:16;11.43;;;4.80;;
25391;SDS011;13329;48.402;11.718;2023-04-10T03:00:46;14.20;;;5.53;;
25391;SDS011;13329;48.402;11.718;2023-04-10T03:03:11;14.75;;;5.05;;
25391;SDS011;13329;48.402;11.718;2023-04-10T03:05:36;11.03;;;4.20;;
25391;SDS011;13329;48.402;11.718;2023-04-10T03:08:01;12.87;;;4.67;;
25391;SDS011;13329;48.402;11.718;2023-04-10T03:10:27;12.03;;;4.37;;
25391;SDS011;13329;48.402;11.718;2023-04-10T03:12:53;13.02;;;4.72;;
25391;SDS011;13329;48.402;11.718;2023-04-10T03:15:18;8.47;;;4.37;;
25391;SDS011;13329;48.402;11.718;2023-04-10T03:17:43;10.60;;;5.03;;
25391;SDS011;13329;48.402;11.718;2023-04-10T03:20:08;11.80;;;5.07;;
25391;SDS011;13329;48.402;11.718;2023-04-10T03:22:34;14.63;;;5.30;;
25391;SDS011;13329;48.402;11.718;2023-04-10T03:24:59;12.63;;;5.67;;
25391;SDS011;13329;48.402;11.718;2023-04-10T03:27:25;15.25;;;6.15;;
25391;SDS011;13329;48.402;11.718;2023-04-10T03:29:50;18.27;;;6.22;;
25391;SDS011;13329;48.402;11.718;2023-04-10T03:32:16;15.73;;;6.53;;
25391;SDS011;13329;48.402;11.718;2023-04-10T03:34:41;21.17;;;7.07;;
25391;SDS011;13329;48.402;11.718;2023-04-10T03:37:06;18.02;;;6.75;;
25391;SDS011;13329;48.402;11.718;2023-04-10T03:39:31;17.27;;;6.77;;
25391;SDS011;13329;48.402;11.718;2023-04-10T03:41:57;20.85;;;7.47;;
25391;SDS011;13329;48.402;11.718;2023-04-10T03:44:22;19.27;;;6.37;;
25391;SDS011;13329;48.402;11.718;2023-04-10T03:46:47;15.07;;;7.00;;
25391;SDS011;13329;48.402;11.718;2023-04-10T03:49:12;14.20;;;6.47;;
25391;SDS011;13329;48.402;11.718;2023-04-10T03:51:38;14.93;;;6.00;;
25391;SDS011;13329;48.402;11.718;2023-04-10T03:54:03;10.63;;;5.00;;
25391;SDS011;13329;48.402;11.718;2023-04-10T03:56:28;13.37;;;5.60;;
25391;SDS011;13329;48.402;11.718;2023-04-10T03:58:53;12.60;;;5.30;;
25391;SDS011;13329;48.402;11.718;2023-04-10T04:01:18;12.73;;;4.73;;
25391;SDS011;13329;48.402;11.718;2023-04-10T04:03:44;13.15;;;4.95;;
25391;SDS011;13329;48.402;11.718;2023-04-10T04:06:09;13.07;;;5.37;;
25391;SDS011;13329;48.402;11.718;2023-04-10T04:08:34;12.23;;;4.67;;
25391;SDS011;13329;48.402;11.718;2023-04-10T04:11:00;11.07;;;4.60;;
25391;SDS011;13329;48.402;11.718;2023-04-10T04:13:25;13.02;;;5.03;;
25391;SDS011;13329;48.402;11.718;2023-04-10T04:15:51;13.45;;;6.22;;
25391;SDS011;13329;48.402;11.718;2023-04-10T04:18:16;12.27;;;4.63;;
25391;SDS011;13329;48.402;11.718;2023-04-10T04:20:41;16.73;;;6.13;;
25391;SDS011;13329;48.402;11.718;2023-04-10T04:23:06;12.13;;;5.03;;
25391;SDS011;13329;48.402;11.718;2023-04-10T04:25:31;14.63;;;4.95;;
25391;SDS011;13329;48.402;11.718;2023-04-10T04:27:57;14.97;;;5.07;;
25391;SDS011;13329;48.402;11.718;2023-04-10T04:30:22;14.37;;;6.10;;
25391;SDS011;13329;48.402;11.718;2023-04-10T04:32:47;13.00;;;4.77;;
25391;SDS011;13329;48.402;11.718;2023-04-10T04:35:12;12.93;;;5.33;;
25391;SDS011;13329;48.402;11.718;2023-04-10T04:37:37;16.30;;;6.37;;
25391;SDS011;13329;48.402;11.718;2023-04-10T04:40:02;16.30;;;6.20;;
25391;SDS011;13329;48.402;11.718;2023-04-10T04:42:28;19.90;;;5.82;;
25391;SDS011;13329;48.402;11.718;2023-04-10T04:44:53;12.40;;;5.60;;
25391;SDS011;13329;48.402;11.718;2023-04-10T04:47:18;20.00;;;5.90;;
25391;SDS011;13329;48.402;11.718;2023-04-10T04:49:43;16.80;;;5.43;;
25391;SDS011;13329;48.402;11.718;2023-04-10T04:52:08;13.23;;;5.60;;
25391;SDS011;13329;48.402;11.718;2023-04-10T04:54:34;12.52;;;4.88;;
25391;SDS011;13329;48.402;11.718;2023-04-10T04:56:59;12.90;;;4.73;;
25391;SDS011;13329;48.402;11.718;2023-04-10T04:59:25;16.27;;;5.40;;
25391;SDS011;13329;48.402;11.718;2023-04-10T05:01:50;17.27;;;5.63;;
25391;SDS011;13329;48.402;11.718;2023-04-10T05:04:16;15.07;;;5.53;;
25391;SDS011;13329;48.402;11.718;2023-04-10T05:06:41;17.57;;;6.63;;
25391;SDS011;13329;48.402;11.718;2023-04-10T05:09:06;20.30;;;5.83;;
25391;SDS011;13329;48.402;11.718;2023-04-10T05:11:32;14.60;;;6.53;;
25391;SDS011;13329;48.402;11.718;2023-04-10T05:13:57;13.80;;;6.50;;
25391;SDS011;13329;48.402;11.718;2023-04-10T05:16:22;15.30;;;6.73;;
25391;SDS011;13329;48.402;11.718;2023-04-10T05:18:47;13.67;;;6.03;;
25391;SDS011;13329;48.402;11.718;2023-04-10T05:21:12;13.95;;;6.00;;
25391;SDS011;13329;48.402;11.718;2023-04-10T05:23:37;23.83;;;7.67;;
25391;SDS011;13329;48.402;11.718;2023-04-10T05:26:03;13.87;;;5.67;;
25391;SDS011;13329;48.402;11.718;2023-04-10T05:28:29;17.95;;;5.55;;
25391;SDS011;13329;48.402;11.718;2023-04-10T05:30:55;15.23;;;6.03;;
25391;SDS011;13329;48.402;11.718;2023-04-10T05:33:20;16.67;;;5.83;;
25391;SDS011;13329;48.402;11.718;2023-04-10T05:35:45;17.47;;;6.40;;
25391;SDS011;13329;48.402;11.718;2023-04-10T05:38:10;18.00;;;7.32;;
25391;SDS011;13329;48.402;11.718;2023-04-10T05:40:36;16.10;;;6.80;;
25391;SDS011;13329;48.402;11.718;2023-04-10T05:43:01;17.37;;;7.13;;
25391;SDS011;13329;48.402;11.718;2023-04-10T05:45:26;17.80;;;6.93;;
25391;SDS011;13329;48.402;11.718;2023-04-10T05:47:52;22.13;;;7.95;;
25391;SDS011;13329;48.402;11.718;2023-04-10T05:50:17;16.97;;;7.10;;
25391;SDS011;13329;48.402;11.718;2023-04-10T05:52:43;23.50;;;8.07;;
25391;SDS011;13329;48.402;11.718;2023-04-10T05:55:08;18.70;;;7.43;;
25391;SDS011;13329;48.402;11.718;2023-04-10T05:57:33;24.20;;;8.13;;
25391;SDS011;13329;48.402;11.718;2023-04-10T05:59:58;19.50;;;8.03;;
25391;SDS011;13329;48.402;11.718;2023-04-10T06:02:23;23.83;;;8.63;;
25391;SDS011;13329;48.402;11.718;2023-04-10T06:04:49;20.33;;;7.78;;
25391;SDS011;13329;48.402;11.718;2023-04-10T06:07:15;25.60;;;8.93;;
25391;SDS011;13329;48.402;11.718;2023-04-10T06:09:40;20.58;;;8.32;;
25391;SDS011;13329;48.402;11.718;2023-04-10T06:12:05;22.90;;;8.23;;
25391;SDS011;13329;48.402;11.718;2023-04-10T06:14:30;21.53;;;8.47;;
25391;SDS011;13329;48.402;11.718;2023-04-10T06:16:56;20.73;;;8.90;;
25391;SDS011;13329;48.402;11.718;2023-04-10T06:19:21;20.83;;;9.07;;
25391;SDS011;13329;48.402;11.718;2023-04-10T06:21:46;22.03;;;9.07;;
25391;SDS011;13329;48.402;11.718;2023-04-10T06:24:11;20.17;;;9.13;;
25391;SDS011;13329;48.402;11.718;2023-04-10T06:26:37;20.67;;;9.13;;
25391;SDS011;13329;48.402;11.718;2023-04-10T06:29:03;23.47;;;9.63;;
25391;SDS011;13329;48.402;11.718;2023-04-10T06:31:29;24.67;;;10.03;;
25391;SDS011;13329;48.402;11.718;2023-04-10T06:33:56;21.77;;;9.27;;
25391;SDS011;13329;48.402;11.718;2023-04-10T06:36:21;24.90;;;9.63;;
25391;SDS011;13329;48.402;11.718;2023-04-10T06:38:46;20.65;;;8.77;;
25391;SDS011;13329;48.402;11.718;2023-04-10T06:41:11;20.27;;;9.03;;
25391;SDS011;13329;48.402;11.718;2023-04-10T06:43:37;24.13;;;9.07;;
25391;SDS011;13329;48.402;11.718;2023-04-10T06:46:03;22.83;;;8.23;;
25391;SDS011;13329;48.402;11.718;2023-04-10T06:48:29;20.25;;;8.40;;
25391;SDS011;13329;48.402;11.718;2023-04-10T06:50:54;17.33;;;7.45;;
25391;SDS011;13329;48.402;11.718;2023-04-10T06:53:19;22.25;;;7.97;;
25391;SDS011;13329;48.402;11.718;2023-04-10T06:55:44;17.70;;;7.33;;
25391;SDS011;13329;48.402;11.718;2023-04-10T06:58:10;21.40;;;7.32;;
25391;SDS011;13329;48.402;11.718;2023-04-10T07:00:35;22.47;;;8.30;;
25391;SDS011;13329;48.402;11.718;2023-04-10T07:03:01;14.80;;;6.43;;
25391;SDS011;13329;48.402;11.718;2023-04-10T07:05:26;16.88;;;7.18;;
25391;SDS011;13329;48.402;11.718;2023-04-10T07:07:51;16.87;;;7.00;;
25391;SDS011;13329;48.402;11.718;2023-04-10T07:10:17;14.15;;;6.95;;
25391;SDS011;13329;48.402;11.718;2023-04-10T07:12:42;17.53;;;7.27;;
25391;SDS011;13329;48.402;11.718;2023-04-10T07:15:07;17.52;;;7.15;;
25391;SDS011;13329;48.402;11.718;2023-04-10T07:17:33;18.92;;;6.90;;
25391;SDS011;13329;48.402;11.718;2023-04-10T07:19:58;14.53;;;6.23;;
25391;SDS011;13329;48.402;11.718;2023-04-10T07:22:23;14.57;;;6.87;;
25391;SDS011;13329;48.402;11.718;2023-04-10T07:24:48;14.37;;;6.90;;
25391;SDS011;13329;48.402;11.718;2023-04-10T07:27:13;15.70;;;7.07;;
25391;SDS011;13329;48.402;11.718;2023-04-10T07:29:39;15.68;;;6.93;;
25391;SDS011;13329;48.402;11.718;2023-04-10T07:32:04;12.45;;;6.00;;
25391;SDS011;13329;48.402;11.718;2023-04-10T07:34:30;15.48;;;6.85;;
25391;SDS011;13329;48.402;11.718;2023-04-10T07:36:55;15.45;;;6.70;;
25391;SDS011;13329;48.402;11.718;2023-04-10T07:39:20;15.60;;;6.77;;
25391;SDS011;13329;48.402;11.718;2023-04-10T07:41:46;13.77;;;5.93;;
25391;SDS011;13329;48.402;11.718;2023-04-10T07:44:11;12.27;;;5.83;;
25391;SDS011;13329;48.402;11.718;2023-04-10T07:46:37;14.05;;;6.55;;
25391;SDS011;13329;48.402;11.718;2023-04-10T07:49:03;15.00;;;6.07;;
25391;SDS011;13329;48.402;11.718;2023-04-10T07:51:28;12.43;;;5.85;;
25391;SDS011;13329;48.402;11.718;2023-04-10T07:53:53;13.07;;;5.90;;
25391;SDS011;13329;48.402;11.718;2023-04-10T07:56:19;12.65;;;6.30;;
25391;SDS011;13329;48.402;11.718;2023-04-10T07:58:44;14.07;;;6.15;;
25391;SDS011;13329;48.402;11.718;2023-04-10T08:01:10;15.18;;;6.22;;
25391;SDS011;13329;48.402;11.718;2023-04-10T08:03:38;12.05;;;6.50;;
25391;SDS011;13329;48.402;11.718;2023-04-10T08:06:04;14.93;;;6.50;;
25391;SDS011;13329;48.402;11.718;2023-04-10T08:08:30;11.00;;;5.60;;
25391;SDS011;13329;48.402;11.718;2023-04-10T08:10:55;13.00;;;6.73;;
25391;SDS011;13329;48.402;11.718;2023-04-10T08:13:20;12.17;;;5.60;;
25391;SDS011;13329;48.402;11.718;2023-04-10T08:15:45;13.93;;;5.70;;
25391;SDS011;13329;48.402;11.718;2023-04-10T08:18:10;12.80;;;5.53;;
25391;SDS011;13329;48.402;11.718;2023-04-10T08:20:36;13.63;;;6.15;;
25391;SDS011;13329;48.402;11.718;2023-04-10T08:23:01;12.63;;;5.30;;
25391;SDS011;13329;48.402;11.718;2023-04-10T08:25:27;14.70;;;5.45;;
25391;SDS011;13329;48.402;11.718;2023-04-10T08:27:52;13.40;;;5.97;;
25391;SDS011;13329;48.402;11.718;2023-04-10T08:30:17;13.13;;;6.32;;
25391;SDS011;13329;48.402;11.718;2023-04-10T08:32:42;13.20;;;5.73;;
25391;SDS011;13329;48.402;11.718;2023-04-10T08:35:07;10.55;;;5.53;;
25391;SDS011;13329;48.402;11.718;2023-04-10T08:37:32;12.27;;;5.65;;
25391;SDS011;13329;48.402;11.718;2023-04-10T08:39:58;11.20;;;5.80;;
25391;SDS011;13329;48.402;11.718;2023-04-10T08:42:23;11.77;;;5.40;;
25391;SDS011;13329;48.402;11.718;2023-04-10T08:44:49;9.25;;;5.30;;
25391;SDS011;13329;48.402;11.718;2023-04-10T08:47:14;13.73;;;6.20;;
25391;SDS011;13329;48.402;11.718;2023-04-10T08:49:46;12.10;;;5.97;;
25391;SDS011;13329;48.402;11.718;2023-04-10T08:52:16;15.48;;;5.93;;
25391;SDS011;13329;48.402;11.718;2023-04-10T08:54:46;12.82;;;6.20;;
25391;SDS011;13329;48.402;11.718;2023-04-10T08:57:12;11.10;;;5.63;;
25391;SDS011;13329;48.402;11.718;2023-04-10T08:59:41;11.77;;;5.50;;
25391;SDS011;13329;48.402;11.718;2023-04-10T09:02:06;11.60;;;5.70;;
25391;SDS011;13329;48.402;11.718;2023-04-10T09:04:32;10.70;;;5.57;;
25391;SDS011;13329;48.402;11.718;2023-04-10T09:06:57;10.68;;;5.50;;
25391;SDS011;13329;48.402;11.718;2023-04-10T09:09:22;10.40;;;5.37;;
25391;SDS011;13329;48.402;11.718;2023-04-10T09:14:22;12.95;;;6.32;;
25391;SDS011;13329;48.402;11.718;2023-04-10T09:16:47;9.45;;;5.25;;
25391;SDS011;13329;48.402;11.718;2023-04-10T09:19:13;9.80;;;5.53;;
25391;SDS011;13329;48.402;11.718;2023-04-10T09:21:52;10.07;;;4.40;;
25391;SDS011;13329;48.402;11.718;2023-04-10T09:24:18;9.15;;;5.03;;
25391;SDS011;13329;48.402;11.718;2023-04-10T09:26:43;10.88;;;4.18;;
25391;SDS011;13329;48.402;11.718;2023-04-10T09:29:08;10.45;;;5.43;;
25391;SDS011;13329;48.402;11.718;2023-04-10T09:31:37;7.20;;;3.55;;
25391;SDS011;13329;48.402;11.718;2023-04-10T09:36:40;10.82;;;5.60;;
25391;SDS011;13329;48.402;11.718;2023-04-10T09:39:06;11.68;;;5.45;;
25391;SDS011;13329;48.402;11.718;2023-04-10T09:41:31;10.43;;;4.97;;
25391;SDS011;13329;48.402;11.718;2023-04-10T09:44:09;10.30;;;4.97;;
25391;SDS011;13329;48.402;11.718;2023-04-10T09:46:35;13.38;;;4.55;;
25391;SDS011;13329;48.402;11.718;2023-04-10T09:49:00;8.20;;;4.27;;
25391;SDS011;13329;48.402;11.718;2023-04-10T09:51:33;9.98;;;4.45;;
25391;SDS011;13329;48.402;11.718;2023-04-10T09:53:59;9.73;;;4.45;;
25391;SDS011;13329;48.402;11.718;2023-04-10T09:56:25;7.78;;;4.68;;
25391;SDS011;13329;48.402;11.718;2023-04-10T09:58:52;7.95;;;4.78;;
25391;SDS011;13329;48.402;11.718;2023-04-10T10:01:18;7.90;;;4.63;;
25391;SDS011;13329;48.402;11.718;2023-04-10T10:03:43;9.88;;;4.55;;
25391;SDS011;13329;48.402;11.718;2023-04-10T10:06:10;9.52;;;4.88;;
25391;SDS011;13329;48.402;11.718;2023-04-10T10:08:35;9.15;;;4.78;;
25391;SDS011;13329;48.402;11.718;2023-04-10T10:11:00;7.80;;;4.17;;
25391;SDS011;13329;48.402;11.718;2023-04-10T10:13:30;7.95;;;4.68;;
25391;SDS011;13329;48.402;11.718;2023-04-10T10:21:17;8.77;;;4.80;;
25391;SDS011;13329;48.402;11.718;2023-04-10T10:23:42;8.38;;;4.80;;
25391;SDS011;13329;48.402;11.718;2023-04-10T10:26:08;9.40;;;5.50;;
25391;SDS011;13329;48.402;11.718;2023-04-10T10:28:33;9.75;;;4.90;;
25391;SDS011;13329;48.402;11.718;2023-04-10T10:31:01;11.32;;;5.78;;
25391;SDS011;13329;48.402;11.718;2023-04-10T10:33:26;7.75;;;4.65;;
25391;SDS011;13329;48.402;11.718;2023-04-10T10:35:53;8.43;;;4.88;;
25391;SDS011;13329;48.402;11.718;2023-04-10T10:38:18;9.00;;;4.95;;
25391;SDS011;13329;48.402;11.718;2023-04-10T10:40:51;8.60;;;4.33;;
25391;SDS011;13329;48.402;11.718;2023-04-10T10:46:08;9.13;;;4.95;;
25391;SDS011;13329;48.402;11.718;2023-04-10T10:48:35;9.55;;;5.22;;
25391;SDS011;13329;48.402;11.718;2023-04-10T10:51:00;10.03;;;4.90;;
25391;SDS011;13329;48.402;11.718;2023-04-10T10:58:48;11.15;;;5.38;;
25391;SDS011;13329;48.402;11.718;2023-04-10T11:01:14;9.55;;;4.50;;
25391;SDS011;13329;48.402;11.718;2023-04-10T11:03:39;7.55;;;4.25;;
25391;SDS011;13329;48.402;11.718;2023-04-10T11:06:05;7.97;;;4.60;;
25391;SDS011;13329;48.402;11.718;2023-04-10T11:11:03;9.27;;;5.00;;
25391;SDS011;13329;48.402;11.718;2023-04-10T11:13:32;7.50;;;4.65;;
25391;SDS011;13329;48.402;11.718;2023-04-10T11:15:58;8.98;;;4.70;;
25391;SDS011;13329;48.402;11.718;2023-04-10T11:21:10;10.43;;;4.70;;
25391;SDS011;13329;48.402;11.718;2023-04-10T11:31:38;8.35;;;5.13;;
25391;SDS011;13329;48.402;11.718;2023-04-10T11:34:03;7.80;;;4.90;;
25391;SDS011;13329;48.402;11.718;2023-04-10T11:36:30;6.53;;;4.38;;
25391;SDS011;13329;48.402;11.718;2023-04-10T11:39:00;8.40;;;4.75;;
25391;SDS011;13329;48.402;11.718;2023-04-10T11:41:27;8.50;;;4.88;;
25391;SDS011;13329;48.402;11.718;2023-04-10T11:43:52;8.60;;;4.50;;
25391;SDS011;13329;48.402;11.718;2023-04-10T11:46:18;9.88;;;4.68;;
25391;SDS011;13329;48.402;11.718;2023-04-10T11:48:44;10.80;;;5.60;;
25391;SDS011;13329;48.402;11.718;2023-04-10T11:51:10;8.25;;;4.68;;
25391;SDS011;13329;48.402;11.718;2023-04-10T11:53:35;9.25;;;5.40;;
25391;SDS011;13329;48.402;11.718;2023-04-10T11:56:01;8.00;;;4.10;;
25391;SDS011;13329;48.402;11.718;2023-04-10T11:58:27;8.20;;;4.28;;
25391;SDS011;13329;48.402;11.718;2023-04-10T12:01:03;7.78;;;4.38;;
25391;SDS011;13329;48.402;11.718;2023-04-10T12:03:32;8.20;;;4.20;;
25391;SDS011;13329;48.402;11.718;2023-04-10T12:05:57;8.90;;;4.60;;
25391;SDS011;13329;48.402;11.718;2023-04-10T12:08:29;7.13;;;4.30;;
25391;SDS011;13329;48.402;11.718;2023-04-10T12:10:55;6.65;;;3.83;;
25391;SDS011;13329;48.402;11.718;2023-04-10T12:13:24;5.80;;;3.53;;
25391;SDS011;13329;48.402;11.718;2023-04-10T12:15:49;5.97;;;3.50;;
25391;SDS011;13329;48.402;11.718;2023-04-10T12:18:15;4.30;;;3.10;;
25391;SDS011;13329;48.402;11.718;2023-04-10T12:20:40;5.43;;;3.57;;
25391;SDS011;13329;48.402;11.718;2023-04-10T12:23:05;6.82;;;3.60;;
25391;SDS011;13329;48.402;11.718;2023-04-10T12:25:30;5.73;;;3.70;;
25391;SDS011;13329;48.402;11.718;2023-04-10T12:27:56;4.88;;;3.00;;
25391;SDS011;13329;48.402;11.718;2023-04-10T12:30:21;5.20;;;2.97;;
25391;SDS011;13329;48.402;11.718;2023-04-10T12:32:49;5.13;;;3.13;;
25391;SDS011;13329;48.402;11.718;2023-04-10T12:35:15;3.72;;;2.55;;
25391;SDS011;13329;48.402;11.718;2023-04-10T12:37:47;3.53;;;2.50;;
25391;SDS011;13329;48.402;11.718;2023-04-10T12:40:12;3.95;;;2.25;;
25391;SDS011;13329;48.402;11.718;2023-04-10T12:42:41;3.55;;;2.45;;
25391;SDS011;13329;48.402;11.718;2023-04-10T12:45:06;5.25;;;3.20;;
25391;SDS011;13329;48.402;11.718;2023-04-10T12:47:47;4.70;;;3.10;;
25391;SDS011;13329;48.402;11.718;2023-04-10T12:50:13;5.15;;;2.75;;
25391;SDS011;13329;48.402;11.718;2023-04-10T12:52:39;4.85;;;2.53;;
25391;SDS011;13329;48.402;11.718;2023-04-10T12:55:08;4.57;;;2.80;;
25391;SDS011;13329;48.402;11.718;2023-04-10T12:57:35;4.60;;;2.63;;
25391;SDS011;13329;48.402;11.718;2023-04-10T13:00:00;4.40;;;2.67;;
25391;SDS011;13329;48.402;11.718;2023-04-10T13:02:27;3.85;;;2.70;;
25391;SDS011;13329;48.402;11.718;2023-04-10T13:04:53;4.43;;;2.93;;
25391;SDS011;13329;48.402;11.718;2023-04-10T13:07:18;5.32;;;3.10;;
25391;SDS011;13329;48.402;11.718;2023-04-10T13:09:43;4.20;;;2.83;;
25391;SDS011;13329;48.402;11.718;2023-04-10T13:12:08;4.47;;;2.83;;
25391;SDS011;13329;48.402;11.718;2023-04-10T13:14:33;4.57;;;3.00;;
25391;SDS011;13329;48.402;11.718;2023-04-10T13:16:58;4.00;;;2.90;;
25391;SDS011;13329;48.402;11.718;2023-04-10T13:19:23;5.68;;;2.80;;
25391;SDS011;13329;48.402;11.718;2023-04-10T13:21:49;4.13;;;2.70;;
25391;SDS011;13329;48.402;11.718;2023-04-10T13:24:15;3.42;;;2.33;;
25391;SDS011;13329;48.402;11.718;2023-04-10T13:26:40;5.30;;;2.90;;
25391;SDS011;13329;48.402;11.718;2023-04-10T13:29:05;4.97;;;2.67;;
25391;SDS011;13329;48.402;11.718;2023-04-10T13:31:30;4.22;;;2.50;;
25391;SDS011;13329;48.402;11.718;2023-04-10T13:33:55;3.55;;;2.30;;
25391;SDS011;13329;48.402;11.718;2023-04-10T13:36:21;5.28;;;2.92;;
25391;SDS011;13329;48.402;11.718;2023-04-10T13:38:46;4.33;;;2.70;;
25391;SDS011;13329;48.402;11.718;2023-04-10T13:41:11;4.20;;;2.60;;
25391;SDS011;13329;48.402;11.718;2023-04-10T13:43:36;4.30;;;2.42;;
25391;SDS011;13329;48.402;11.718;2023-04-10T13:46:01;3.90;;;2.60;;
25391;SDS011;13329;48.402;11.718;2023-04-10T13:48:27;4.40;;;2.57;;
25391;SDS011;13329;48.402;11.718;2023-04-10T13:50:52;3.42;;;2.22;;
25391;SDS011;13329;48.402;11.718;2023-04-10T13:53:17;5.05;;;2.65;;
25391;SDS011;13329;48.402;11.718;2023-04-10T13:55:43;4.10;;;2.73;;
25391;SDS011;13329;48.402;11.718;2023-04-10T13:58:11;4.90;;;2.70;;
25391;SDS011;13329;48.402;11.718;2023-04-10T14:00:41;4.10;;;2.22;;
25391;SDS011;13329;48.402;11.718;2023-04-10T14:03:06;4.30;;;2.50;;
25391;SDS011;13329;48.402;11.718;2023-04-10T14:05:34;4.28;;;2.47;;
25391;SDS011;13329;48.402;11.718;2023-04-10T14:07:59;3.60;;;2.23;;
25391;SDS011;13329;48.402;11.718;2023-04-10T14:10:24;3.53;;;2.27;;
25391;SDS011;13329;48.402;11.718;2023-04-10T14:12:49;5.25;;;2.75;;
25391;SDS011;13329;48.402;11.718;2023-04-10T14:15:15;5.05;;;2.72;;
25391;SDS011;13329;48.402;11.718;2023-04-10T14:17:40;3.27;;;2.37;;
25391;SDS011;13329;48.402;11.718;2023-04-10T14:20:05;4.10;;;2.13;;
25391;SDS011;13329;48.402;11.718;2023-04-10T14:22:31;4.70;;;2.95;;
25391;SDS011;13329;48.402;11.718;2023-04-10T14:24:56;6.53;;;2.83;;
25391;SDS011;13329;48.402;11.718;2023-04-10T14:27:21;4.03;;;2.30;;
25391;SDS011;13329;48.402;11.718;2023-04-10T14:29:46;3.60;;;2.53;;
25391;SDS011;13329;48.402;11.718;2023-04-10T14:32:11;4.32;;;2.60;;
25391;SDS011;13329;48.402;11.718;2023-04-10T14:34:36;4.53;;;2.73;;
25391;SDS011;13329;48.402;11.718;2023-04-10T14:37:02;4.37;;;2.93;;
25391;SDS011;13329;48.402;11.718;2023-04-10T14:39:27;3.97;;;2.37;;
25391;SDS011;13329;48.402;11.718;2023-04-10T14:41:52;5.20;;;2.43;;
25391;SDS011;13329;48.402;11.718;2023-04-10T14:44:17;3.83;;;2.37;;
25391;SDS011;13329;48.402;11.718;2023-04-10T14:46:43;3.87;;;2.73;;
25391;SDS011;13329;48.402;11.718;2023-04-10T14:49:08;3.20;;;2.17;;
25391;SDS011;13329;48.402;11.718;2023-04-10T14:51:33;4.32;;;2.42;;
25391;SDS011;13329;48.402;11.718;2023-04-10T14:53:59;3.53;;;2.30;;
25391;SDS011;13329;48.402;11.718;2023-04-10T14:56:24;3.60;;;2.42;;
25391;SDS011;13329;48.402;11.718;2023-04-10T14:58:49;4.00;;;2.40;;
25391;SDS011;13329;48.402;11.718;2023-04-10T15:01:14;4.07;;;2.30;;